createdAt,value
2023-04-16T00:00:43.770Z,100123.50
2023-04-16T00:03:46.983Z,100121.03
2023-04-16T00:06:49.692Z,100110.94
2023-04-16T00:09:52.238Z,100122.28
2023-04-16T00:12:54.745Z,100117.00
2023-04-16T00:15:57.277Z,100123.34
2023-04-16T00:18:59.704Z,100114.84
2023-04-16T00:22:02.257Z,100114.34
2023-04-16T00:25:05.165Z,100112.47
2023-04-16T00:28:09.025Z,100125.38
2023-04-16T00:31:12.423Z,100133.50
2023-04-16T00:34:15.322Z,100144.38
2023-04-16T00:37:17.795Z,100136.56
2023-04-16T00:40:20.357Z,100136.66
2023-04-16T00:43:24.850Z,100142.47
2023-04-16T00:46:27.760Z,100130.63
2023-04-16T00:49:31.602Z,100129.03
2023-04-16T00:52:35.746Z,100138.34
2023-04-16T00:55:39.687Z,100143.72
2023-04-16T00:58:42.279Z,100138.53
2023-04-16T01:01:44.890Z,100121.31
2023-04-16T01:04:47.594Z,100122.38
2023-04-16T01:07:51.270Z,100123.91
2023-04-16T01:10:53.681Z,100122.91
2023-04-16T01:13:56.253Z,100130.09
2023-04-16T01:16:58.662Z,100124.06
2023-04-16T01:20:01.300Z,100118.03
2023-04-16T01:23:04.010Z,100133.84
2023-04-16T01:26:06.481Z,100123.09
2023-04-16T01:29:09.179Z,100126.72
2023-04-16T01:32:11.950Z,100131.97
2023-04-16T01:35:18.368Z,100128.72
2023-04-16T01:38:21.035Z,100128.44
2023-04-16T01:41:23.487Z,100130.94
2023-04-16T01:44:26.478Z,100122.81
2023-04-16T01:47:29.326Z,100128.16
2023-04-16T01:50:32.929Z,100130.56
2023-04-16T01:53:37.113Z,100143.09
2023-04-16T01:56:40.017Z,100142.28
2023-04-16T01:59:42.467Z,100150.22
2023-04-16T02:02:45.548Z,100147.72
2023-04-16T02:05:52.352Z,100154.94
2023-04-16T02:08:54.805Z,100146.50
2023-04-16T02:11:57.490Z,100130.84
2023-04-16T02:15:00.162Z,100145.94
2023-04-16T02:18:04.811Z,100151.09
2023-04-16T02:21:08.066Z,100144.69
2023-04-16T02:24:10.659Z,100141.81
2023-04-16T02:27:13.092Z,100146.31
2023-04-16T02:30:16.616Z,100157.28
2023-04-16T02:33:20.284Z,100144.56
2023-04-16T02:36:32.238Z,100160.63
2023-04-16T02:39:35.463Z,100163.72
2023-04-16T02:42:37.883Z,100147.31
2023-04-16T02:45:41.332Z,100161.31
2023-04-16T02:48:43.998Z,100168.88
2023-04-16T02:51:46.976Z,100163.78
2023-04-16T02:54:49.537Z,100149.06
2023-04-16T02:57:52.976Z,100169.00
2023-04-16T03:00:55.796Z,100157.59
2023-04-16T03:03:58.425Z,100163.28
2023-04-16T03:07:01.033Z,100168.81
2023-04-16T03:10:03.749Z,100174.22
2023-04-16T03:13:06.515Z,100178.41
2023-04-16T03:16:09.107Z,100164.78
2023-04-16T03:19:12.138Z,100161.91
2023-04-16T03:22:15.062Z,100156.66
2023-04-16T03:25:18.057Z,100161.34
2023-04-16T03:28:21.789Z,100176.16
2023-04-16T03:31:26.068Z,100171.38
2023-04-16T03:34:29.634Z,100189.06
2023-04-16T03:37:32.302Z,100194.06
2023-04-16T03:40:34.804Z,100173.72
2023-04-16T03:43:37.538Z,100201.66
2023-04-16T03:46:40.657Z,100212.25
2023-04-16T03:49:43.162Z,100208.63
2023-04-16T03:52:47.008Z,100219.84
2023-04-16T03:55:51.589Z,100219.69
2023-04-16T03:58:54.912Z,100219.69
2023-04-16T04:01:58.288Z,100226.88
2023-04-16T04:05:02.462Z,100230.22
2023-04-16T04:08:05.575Z,100228.72
2023-04-16T04:11:08.796Z,100243.09
2023-04-16T04:14:11.960Z,100221.81
2023-04-16T04:17:14.613Z,100220.66
2023-04-16T04:20:17.330Z,100233.47
2023-04-16T04:23:22.145Z,100233.41
2023-04-16T04:26:25.746Z,100248.63
2023-04-16T04:29:28.480Z,100251.47
2023-04-16T04:32:31.402Z,100224.44
2023-04-16T04:35:34.035Z,100224.88
2023-04-16T04:38:37.057Z,100230.47
2023-04-16T04:41:40.508Z,100238.03
2023-04-16T04:44:43.092Z,100233.34
2023-04-16T04:47:46.019Z,100245.03
2023-04-16T04:50:48.467Z,100235.25
2023-04-16T04:53:50.836Z,100235.50
2023-04-16T04:56:53.491Z,100240.22
2023-04-16T04:59:56.440Z,100237.00
2023-04-16T05:03:03.029Z,100249.91
2023-04-16T05:06:05.647Z,100258.75
2023-04-16T05:09:11.889Z,100256.53
2023-04-16T05:12:14.440Z,100254.19
2023-04-16T05:15:17.240Z,100270.38
2023-04-16T05:18:20.506Z,100258.66
2023-04-16T05:21:23.003Z,100268.44
2023-04-16T05:24:25.753Z,100278.50
2023-04-16T05:27:28.218Z,100263.00
2023-04-16T05:30:30.838Z,100265.66
2023-04-16T05:33:33.316Z,100267.00
2023-04-16T05:36:35.782Z,100263.31
2023-04-16T05:39:38.546Z,100266.66
2023-04-16T05:42:41.373Z,100261.75
2023-04-16T05:45:43.914Z,100277.53
2023-04-16T05:48:47.328Z,100280.97
2023-04-16T05:51:50.860Z,100281.34
2023-04-16T05:54:53.516Z,100289.78
2023-04-16T05:57:56.063Z,100310.75
2023-04-16T06:00:58.717Z,100287.63
2023-04-16T06:04:01.847Z,100309.81
2023-04-16T06:07:04.587Z,100303.88
2023-04-16T06:10:07.569Z,100302.59
2023-04-16T06:13:10.057Z,100305.66
2023-04-16T06:16:12.596Z,100315.66
2023-04-16T06:19:15.296Z,100310.72
2023-04-16T06:22:17.923Z,100315.34
2023-04-16T06:25:20.433Z,100307.94
2023-04-16T06:28:23.005Z,100318.44
2023-04-16T06:31:25.644Z,100307.84
2023-04-16T06:34:28.491Z,100318.91
2023-04-16T06:37:31.249Z,100299.97
2023-04-16T06:40:33.764Z,100306.84
2023-04-16T06:43:36.570Z,100297.34
2023-04-16T06:46:39.530Z,100326.94
2023-04-16T06:49:42.405Z,100310.38
2023-04-16T06:52:45.119Z,100300.06
2023-04-16T06:55:47.683Z,100289.56
2023-04-16T06:58:50.558Z,100296.00
2023-04-16T07:01:53.128Z,100300.41
2023-04-16T07:04:55.952Z,100293.84
2023-04-16T07:07:59.279Z,100311.22
2023-04-16T07:11:01.883Z,100313.19
2023-04-16T07:14:04.300Z,100313.97
2023-04-16T07:17:06.777Z,100321.34
2023-04-16T07:20:09.589Z,100325.19
2023-04-16T07:23:12.099Z,100315.53
2023-04-16T07:26:14.581Z,100319.94
2023-04-16T07:29:17.396Z,100317.56
2023-04-16T07:32:22.523Z,100311.16
2023-04-16T07:35:25.476Z,100315.75
2023-04-16T07:38:28.122Z,100328.72
2023-04-16T07:41:31.052Z,100312.16
2023-04-16T07:44:33.701Z,100318.09
2023-04-16T07:47:36.655Z,100320.00
2023-04-16T07:50:39.280Z,100307.06
2023-04-16T07:53:43.432Z,100299.50
2023-04-16T07:56:46.140Z,100303.31
2023-04-16T07:59:49.122Z,100308.50
2023-04-16T08:02:51.615Z,100309.19
2023-04-16T08:05:54.271Z,100311.06
2023-04-16T08:08:57.009Z,100322.00
2023-04-16T08:12:00.937Z,100314.88
2023-04-16T08:15:03.751Z,100305.38
2023-04-16T08:18:07.464Z,100316.97
2023-04-16T08:21:10.002Z,100296.59
2023-04-16T08:24:12.741Z,100301.81
2023-04-16T08:27:19.964Z,100301.31
2023-04-16T08:30:23.049Z,100298.97
2023-04-16T08:33:25.525Z,100314.78
2023-04-16T08:36:27.991Z,100301.84
2023-04-16T08:39:30.555Z,100295.41
2023-04-16T08:42:45.005Z,100305.00
2023-04-16T08:45:47.695Z,100304.88
2023-04-16T08:48:54.404Z,100326.91
2023-04-16T08:51:57.525Z,100313.47
2023-04-16T08:55:16.925Z,100328.03
2023-04-16T08:58:22.208Z,100325.66
2023-04-16T09:01:26.879Z,100332.41
2023-04-16T09:04:30.002Z,100325.09
2023-04-16T09:07:34.227Z,100336.94
2023-04-16T09:10:36.781Z,100332.25
2023-04-16T09:13:39.600Z,100328.13
2023-04-16T09:16:42.417Z,100327.31
2023-04-16T09:19:47.189Z,100332.63
2023-04-16T09:22:49.815Z,100341.16
2023-04-16T09:25:52.221Z,100347.19
2023-04-16T09:28:55.540Z,100336.75
2023-04-16T09:32:09.084Z,100327.56
2023-04-16T09:35:11.665Z,100342.00
2023-04-16T09:38:14.236Z,100344.53
2023-04-16T09:41:16.888Z,100335.19
2023-04-16T09:44:19.345Z,100339.97
2023-04-16T09:47:22.916Z,100334.88
2023-04-16T09:50:26.495Z,100350.00
2023-04-16T09:53:31.054Z,100353.00
2023-04-16T09:56:34.114Z,100340.94
2023-04-16T09:59:37.141Z,100340.47
2023-04-16T10:02:42.213Z,100344.19
2023-04-16T10:05:45.403Z,100348.91
2023-04-16T10:08:53.356Z,100347.63
2023-04-16T10:11:55.967Z,100341.09
2023-04-16T10:14:58.479Z,100339.19
2023-04-16T10:18:01.388Z,100326.16
2023-04-16T10:21:05.662Z,100321.09
2023-04-16T10:24:08.904Z,100343.69
2023-04-16T10:27:11.548Z,100331.53
2023-04-16T10:30:15.633Z,100342.91
2023-04-16T10:33:30.285Z,100337.22
2023-04-16T10:36:36.727Z,100343.47
2023-04-16T10:39:39.649Z,100333.84
2023-04-16T10:42:42.182Z,100323.41
2023-04-16T10:45:44.675Z,100337.53
2023-04-16T10:48:50.214Z,100339.66
2023-04-16T10:52:12.285Z,100330.59
2023-04-16T10:55:17.752Z,100327.13
2023-04-16T10:58:35.876Z,100333.44
2023-04-16T11:01:44.417Z,100313.81
2023-04-16T11:04:48.587Z,100301.38
2023-04-16T11:07:51.170Z,100317.59
2023-04-16T11:10:54.330Z,100304.22
2023-04-16T11:13:57.147Z,100312.19
2023-04-16T11:17:03.764Z,100319.88
2023-04-16T11:20:20.144Z,100318.44
2023-04-16T11:23:23.775Z,100311.84
2023-04-16T11:26:28.857Z,100312.13
2023-04-16T11:29:31.393Z,100303.72
2023-04-16T11:32:35.627Z,100305.66
2023-04-16T11:35:39.653Z,100310.03
2023-04-16T11:38:43.070Z,100307.50
2023-04-16T11:41:52.342Z,100307.22
2023-04-16T11:44:56.216Z,100305.16
2023-04-16T11:47:58.901Z,100295.34
2023-04-16T11:51:01.791Z,100295.06
2023-04-16T11:54:04.634Z,100299.59
2023-04-16T11:57:07.260Z,100295.38
2023-04-16T12:00:15.970Z,100288.47
2023-04-16T12:03:18.651Z,100289.53
2023-04-16T12:06:22.722Z,100284.63
2023-04-16T12:09:30.152Z,100284.06
2023-04-16T12:12:32.914Z,100288.59
2023-04-16T12:15:55.355Z,100278.03
2023-04-16T12:19:03.885Z,100277.94
2023-04-16T12:22:06.659Z,100276.41
2023-04-16T12:25:13.139Z,100276.91
2023-04-16T12:28:16.551Z,100261.88
2023-04-16T12:31:37.464Z,100259.09
2023-04-16T12:34:51.431Z,100248.06
2023-04-16T12:37:53.843Z,100248.63
2023-04-16T12:40:57.648Z,100251.50
2023-04-16T12:44:11.984Z,100254.94
2023-04-16T12:47:14.992Z,100252.84
2023-04-16T12:50:17.874Z,100251.50
2023-04-16T12:53:20.523Z,100247.28
2023-04-16T12:56:23.220Z,100239.91
2023-04-16T12:59:26.850Z,100235.69
2023-04-16T13:02:29.597Z,100243.06
2023-04-16T13:05:32.417Z,100228.28
2023-04-16T13:08:35.031Z,100230.66
2023-04-16T13:11:37.773Z,100236.97
2023-04-16T13:14:40.296Z,100228.47
2023-04-16T13:17:42.823Z,100236.84
2023-04-16T13:20:45.553Z,100234.22
2023-04-16T13:23:48.000Z,100235.28
2023-04-16T13:26:52.060Z,100239.84
2023-04-16T13:29:54.613Z,100236.31
2023-04-16T13:32:57.253Z,100215.09
2023-04-16T13:36:00.171Z,100224.31
2023-04-16T13:39:05.267Z,100225.97
2023-04-16T13:42:08.124Z,100199.03
2023-04-16T13:45:11.374Z,100210.34
2023-04-16T13:48:14.234Z,100213.94
2023-04-16T13:51:17.029Z,100196.00
2023-04-16T13:54:20.058Z,100199.09
2023-04-16T13:57:22.768Z,100199.69
2023-04-16T14:00:27.690Z,100200.69
2023-04-16T14:03:30.543Z,100199.03
2023-04-16T14:06:34.620Z,100188.34
2023-04-16T14:09:37.392Z,100195.13
2023-04-16T14:12:40.681Z,100170.69
2023-04-16T14:15:43.498Z,100179.97
2023-04-16T14:18:46.404Z,100185.69
2023-04-16T14:21:49.310Z,100182.22
2023-04-16T14:24:52.010Z,100196.06
2023-04-16T14:27:54.526Z,100193.34
2023-04-16T14:30:57.333Z,100182.59
2023-04-16T14:33:59.950Z,100186.19
2023-04-16T14:37:02.478Z,100175.81
2023-04-16T14:40:08.999Z,100191.13
2023-04-16T14:43:11.959Z,100187.81
2023-04-16T14:46:17.660Z,100176.16
2023-04-16T14:49:20.798Z,100180.22
2023-04-16T14:52:24.209Z,100183.28
2023-04-16T14:55:27.216Z,100174.00
2023-04-16T14:58:29.720Z,100178.84
2023-04-16T15:01:33.712Z,100174.38
2023-04-16T15:04:36.645Z,100180.41
2023-04-16T15:07:39.419Z,100164.38
2023-04-16T15:10:43.383Z,100174.06
2023-04-16T15:13:48.930Z,100155.41
2023-04-16T15:16:51.701Z,100161.00
2023-04-16T15:19:54.371Z,100173.97
2023-04-16T15:22:56.985Z,100179.72
2023-04-16T15:25:59.492Z,100174.72
2023-04-16T15:29:02.139Z,100174.56
2023-04-16T15:32:04.808Z,100173.06
2023-04-16T15:35:09.181Z,100155.78
2023-04-16T15:38:13.062Z,100164.81
2023-04-16T15:41:15.921Z,100176.06
2023-04-16T15:44:18.691Z,100172.84
2023-04-16T15:47:21.522Z,100163.63
2023-04-16T15:50:25.527Z,100161.75
2023-04-16T15:53:28.265Z,100169.41
2023-04-16T15:56:31.596Z,100158.59
2023-04-16T15:59:34.291Z,100170.00
2023-04-16T16:02:38.196Z,100165.50
2023-04-16T16:05:41.082Z,100174.44
2023-04-16T16:08:44.187Z,100163.34
2023-04-16T16:11:47.322Z,100160.00
2023-04-16T16:14:50.017Z,100155.00
2023-04-16T16:17:53.539Z,100180.50
2023-04-16T16:20:57.751Z,100167.50
2023-04-16T16:24:00.344Z,100169.63
2023-04-16T16:27:03.089Z,100166.63
2023-04-16T16:30:07.385Z,100173.09
2023-04-16T16:33:10.507Z,100170.97
2023-04-16T16:36:13.170Z,100171.44
2023-04-16T16:39:16.053Z,100175.81
2023-04-16T16:42:18.969Z,100165.56
2023-04-16T16:45:21.807Z,100179.81
2023-04-16T16:48:24.818Z,100179.81
2023-04-16T16:51:27.770Z,100156.88
2023-04-16T16:54:31.063Z,100175.97
2023-04-16T16:57:34.953Z,100172.50
2023-04-16T17:00:38.008Z,100175.66
2023-04-16T17:03:41.247Z,100157.47
2023-04-16T17:06:43.821Z,100174.09
2023-04-16T17:09:46.762Z,100185.22
2023-04-16T17:12:51.114Z,100183.50
2023-04-16T17:15:53.848Z,100186.31
2023-04-16T17:18:57.314Z,100179.25
2023-04-16T17:22:00.353Z,100180.19
2023-04-16T17:25:03.934Z,100199.59
2023-04-16T17:28:06.676Z,100193.06
2023-04-16T17:31:11.432Z,100190.22
2023-04-16T17:34:14.522Z,100196.44
2023-04-16T17:37:16.927Z,100203.91
2023-04-16T17:40:19.944Z,100205.38
2023-04-16T17:43:22.816Z,100200.28
2023-04-16T17:46:25.949Z,100209.06
2023-04-16T17:49:28.646Z,100200.78
2023-04-16T17:52:31.413Z,100221.75
2023-04-16T17:55:34.014Z,100211.75
2023-04-16T17:58:37.622Z,100193.97
2023-04-16T18:01:41.042Z,100198.25
2023-04-16T18:04:43.654Z,100204.22
2023-04-16T18:07:47.144Z,100203.34
2023-04-16T18:10:50.487Z,100204.34
2023-04-16T18:13:53.986Z,100211.06
2023-04-16T18:16:58.350Z,100208.03
2023-04-16T18:20:01.055Z,100225.44
2023-04-16T18:23:04.106Z,100223.06
2023-04-16T18:26:08.432Z,100232.50
2023-04-16T18:29:13.224Z,100240.91
2023-04-16T18:32:16.617Z,100241.06
2023-04-16T18:35:19.589Z,100222.19
2023-04-16T18:38:22.639Z,100230.38
2023-04-16T18:41:25.643Z,100215.63
2023-04-16T18:44:28.379Z,100218.34
2023-04-16T18:47:31.500Z,100208.22
2023-04-16T18:50:34.184Z,100211.88
2023-04-16T18:53:38.045Z,100205.75
2023-04-16T18:56:41.332Z,100205.13
2023-04-16T18:59:44.216Z,100219.66
2023-04-16T19:02:47.235Z,100227.28
2023-04-16T19:05:52.076Z,100207.88
2023-04-16T19:08:54.984Z,100227.63
2023-04-16T19:11:58.464Z,100215.13
2023-04-16T19:15:01.670Z,100221.72
2023-04-16T19:18:04.751Z,100216.38
2023-04-16T19:21:07.677Z,100224.78
2023-04-16T19:24:11.209Z,100215.38
2023-04-16T19:27:14.015Z,100218.44
2023-04-16T19:30:17.004Z,100204.22
2023-04-16T19:33:23.209Z,100215.50
2023-04-16T19:36:26.536Z,100215.38
2023-04-16T19:39:29.327Z,100213.59
2023-04-16T19:42:32.674Z,100198.66
2023-04-16T19:45:36.251Z,100207.19
2023-04-16T19:48:38.851Z,100214.22
2023-04-16T19:51:41.559Z,100207.19
2023-04-16T19:54:44.702Z,100210.16
2023-04-16T19:57:48.202Z,100206.38
2023-04-16T20:00:51.008Z,100193.44
2023-04-16T20:03:54.680Z,100209.22
2023-04-16T20:06:57.385Z,100185.59
2023-04-16T20:10:00.047Z,100200.16
2023-04-16T20:13:02.923Z,100196.38
2023-04-16T20:16:05.953Z,100193.09
2023-04-16T20:19:09.062Z,100172.75
2023-04-16T20:22:15.659Z,100203.53
2023-04-16T20:25:21.776Z,100191.28
2023-04-16T20:28:24.324Z,100195.94
2023-04-16T20:31:27.388Z,100204.13
2023-04-16T20:34:29.982Z,100193.00
2023-04-16T20:37:32.547Z,100197.53
2023-04-16T20:40:38.062Z,100201.16
2023-04-16T20:43:42.066Z,100202.19
2023-04-16T20:46:49.484Z,100170.59
2023-04-16T20:49:52.970Z,100185.03
2023-04-16T20:52:55.937Z,100180.38
2023-04-16T20:56:00.516Z,100193.53
2023-04-16T20:59:03.005Z,100172.88
2023-04-16T21:02:05.867Z,100189.13
2023-04-16T21:05:14.596Z,100191.03
2023-04-16T21:08:21.462Z,100187.31
2023-04-16T21:11:23.970Z,100191.84
2023-04-16T21:14:26.559Z,100201.84
2023-04-16T21:17:30.010Z,100191.28
2023-04-16T21:20:33.257Z,100188.66
2023-04-16T21:23:36.026Z,100181.97
2023-04-16T21:26:38.449Z,100192.19
2023-04-16T21:29:40.829Z,100172.41
2023-04-16T21:32:43.627Z,100175.25
2023-04-16T21:35:51.258Z,100179.25
2023-04-16T21:38:53.701Z,100174.94
2023-04-16T21:41:57.055Z,100183.31
2023-04-16T21:44:59.661Z,100189.00
2023-04-16T21:48:02.211Z,100164.66
2023-04-16T21:51:08.231Z,100178.75
2023-04-16T21:54:11.877Z,100183.28
2023-04-16T21:57:14.841Z,100156.47
2023-04-16T22:00:18.375Z,100173.28
2023-04-16T22:03:26.665Z,100172.94
2023-04-16T22:06:29.244Z,100154.22
2023-04-16T22:09:32.623Z,100158.41
2023-04-16T22:12:37.857Z,100166.81
2023-04-16T22:15:40.607Z,100151.16
2023-04-16T22:18:43.167Z,100140.13
2023-04-16T22:21:47.575Z,100161.38
2023-04-16T22:24:50.060Z,100133.53
2023-04-16T22:27:52.627Z,100155.59
2023-04-16T22:30:55.013Z,100152.53
2023-04-16T22:33:57.525Z,100157.50
2023-04-16T22:37:01.456Z,100134.47
2023-04-16T22:40:08.230Z,100144.00
2023-04-16T22:43:10.919Z,100143.75
2023-04-16T22:46:13.493Z,100144.44
2023-04-16T22:49:16.078Z,100136.84
2023-04-16T22:52:18.625Z,100136.38
2023-04-16T22:55:21.185Z,100133.00
2023-04-16T22:58:23.581Z,100135.84
2023-04-16T23:01:26.536Z,100134.00
2023-04-16T23:04:29.221Z,100124.81
2023-04-16T23:07:31.803Z,100134.56
2023-04-16T23:10:34.272Z,100123.31
2023-04-16T23:13:37.397Z,100133.78
2023-04-16T23:16:40.097Z,100125.81
2023-04-16T23:19:42.565Z,100125.59
2023-04-16T23:22:47.203Z,100098.56
2023-04-16T23:25:53.261Z,100110.13
2023-04-16T23:28:57.093Z,100107.31
2023-04-16T23:31:59.693Z,100104.91
2023-04-16T23:35:02.281Z,100113.09
2023-04-16T23:38:04.777Z,100106.66
2023-04-16T23:41:07.445Z,100112.75
2023-04-16T23:44:09.968Z,100100.41
2023-04-16T23:47:12.351Z,100100.97
2023-04-16T23:50:15.191Z,100093.81
2023-04-16T23:53:17.870Z,100080.41
2023-04-16T23:56:20.430Z,100099.72
2023-04-16T23:59:24.184Z,100096.09
